Savannah, GA

10:28 AM EST on January 22, 2017 (GMT -0500)
Savannah International | | Change Station
Active Advisory: Small Craft Advisory

Elev 49 ft 32.13 °N, 81.20 °W | Updated 20 minutes ago

Rain
Rain
61 °F
Feels Like 61 °F
N
9
Wind Variable Wind from SE

Today
High -- | Low -- °F
--% Chance of Precip.
Yesterday
High -- | Low -- °F
Precip. -- in
Pressure 29.63 in
Visibility 5.0 miles
Clouds Scattered Clouds 1500 ft
Mostly Cloudy 3500 ft
Mostly Cloudy 7500 ft
Overcast 13000 ft
Dew Point 59 °F
Humidity 93%
Rainfall 3.39 in
Snow Depth Not available.
7:23 AM 5:49 PM
Waning Crescent, 25% visible
SPECI KSAV 221508Z 13008KT 5SM TSRA BR SCT015 BKN035CB BKN075 OVC130 16/15 A2963 RMK AO2 LTG DSNT ALQDS TSB06 OCNL LTGICCC OHD-E-S TS OHD-E-S MOV E P0006 T01610150 $
Pressure 29.63 in
Visibility 5.0 miles
Clouds Scattered Clouds 1500 ft
Mostly Cloudy 3500 ft
Mostly Cloudy 7500 ft
Overcast 13000 ft
Dew Point 59 °F
Humidity 93%
Rainfall 3.39 in
Snow Depth Not available.
7:23 AM 5:49 PM
Waning Crescent, 25% visible
SPECI KSAV 221508Z 13008KT 5SM TSRA BR SCT015 BKN035CB BKN075 OVC130 16/15 A2963 RMK AO2 LTG DSNT ALQDS TSB06 OCNL LTGICCC OHD-E-S TS OHD-E-S MOV E P0006 T01610150 $

Get Your Daily Forecast Email!

Thanks for signing up!

Be on the lookout for a verification email in your inbox.

You'll start receiving the daily forecast at 8 AM.

×

10-Day Weather Forecast

Almanac

Astronomy

Jan. 22, 2017 Rise Set
Actual Time
Civil Twilight
Nautical Twilight
Astronomical Twilight
Moon
Length of Visible Light
Length of Day
Tomorrow will be .
, % of the Moon is Illuminated

Today's Extremes

State Highs State Lows

Community

WunderPhotos

Upload Photos

1,962,540 photos uploaded!

WunderBlog® & News

Nearby

Air Quality

  Air Quality AQ Index Pollutant
Not available.

Snow Depth

Station Depth Elevation

Earthquake Activity

City Distance Mag. Time & Date
Minimum magnitude displayed is 2.5.

Coastal Water Temperatures

Place Temperature

Stations

Nearby Weather Stations

Station Location Temp. Windchill Dew Point Humidity Wind Precip. Elev Updated Type
                   

Watches & Warnings

Small Craft Advisory
Issued: 7:06 AM EST Jan. 22, 2017 – National Weather Service

... Small Craft Advisory now in effect until 7 am EST Tuesday...

* impacts... wind and or wave conditions will be hazardous to
small craft.

Precautionary/preparedness actions...

During a Small Craft Advisory... inexperienced mariners...
especially those operating smaller vessels... should avoid
navigating in hazardous conditions.